createdAt,value
2022-12-22T00:00:02.644Z,95.15
2022-12-22T00:03:28.780Z,95.87
2022-12-22T00:06:18.243Z,95.91
2022-12-22T00:09:07.272Z,95.54
2022-12-22T00:11:56.887Z,95.25
2022-12-22T00:14:46.978Z,95.21
2022-12-22T00:17:43.056Z,94.84
2022-12-22T00:20:38.022Z,95.69
2022-12-22T00:23:29.895Z,95.58
2022-12-22T00:26:19.203Z,95.25
2022-12-22T00:29:08.709Z,95.09
2022-12-22T00:31:58.215Z,95.61
2022-12-22T00:34:48.653Z,95.49
2022-12-22T00:37:37.783Z,95.38
2022-12-22T00:40:36.818Z,95.51
2022-12-22T00:43:26.783Z,95.18
2022-12-22T00:46:17.365Z,95.41
2022-12-22T00:49:07.735Z,95.96
2022-12-22T00:51:56.979Z,96.84
2022-12-22T00:54:46.088Z,96.92
2022-12-22T00:57:38.341Z,96.79
2022-12-22T01:00:35.529Z,96.42
2022-12-22T01:03:28.722Z,95.69
2022-12-22T01:06:20.456Z,95.32
2022-12-22T01:09:09.717Z,96.13
2022-12-22T01:11:59.535Z,95.85
2022-12-22T01:14:48.780Z,95.41
2022-12-22T01:17:38.180Z,95.01
2022-12-22T01:20:28.998Z,94.50
2022-12-22T01:23:18.664Z,94.15
2022-12-22T01:26:07.676Z,94.16
2022-12-22T01:28:57.364Z,94.08
2022-12-22T01:31:49.685Z,94.53
2022-12-22T01:34:38.813Z,94.10
2022-12-22T01:37:27.759Z,93.76
2022-12-22T01:40:16.774Z,93.44
2022-12-22T01:43:05.776Z,93.97
2022-12-22T01:45:56.564Z,94.16
2022-12-22T01:48:48.403Z,93.74
2022-12-22T01:51:40.500Z,93.31
2022-12-22T01:54:30.996Z,93.51
2022-12-22T01:57:20.196Z,93.94
2022-12-22T02:00:09.608Z,94.56
2022-12-22T02:03:01.595Z,95.18
2022-12-22T02:05:57.421Z,94.53
2022-12-22T02:08:51.899Z,93.87
2022-12-22T02:11:48.408Z,93.41
2022-12-22T02:14:45.880Z,93.24
2022-12-22T02:17:40.012Z,93.45
2022-12-22T02:20:57.268Z,93.47
2022-12-22T02:24:12.287Z,93.43
2022-12-22T02:27:08.197Z,94.44
2022-12-22T02:30:00.766Z,94.28
2022-12-22T02:32:54.692Z,94.00
2022-12-22T02:35:44.467Z,93.58
2022-12-22T02:38:41.702Z,93.52
2022-12-22T02:41:39.159Z,93.05
2022-12-22T02:44:41.916Z,92.68
2022-12-22T02:47:37.648Z,92.96
2022-12-22T02:50:39.105Z,93.08
2022-12-22T02:53:30.074Z,92.82
2022-12-22T02:56:22.160Z,92.80
2022-12-22T02:59:12.128Z,92.91
2022-12-22T03:02:05.771Z,93.10
2022-12-22T03:04:55.767Z,92.78
2022-12-22T03:07:44.791Z,93.06
2022-12-22T03:10:34.451Z,93.77
2022-12-22T03:13:24.046Z,93.83
2022-12-22T03:16:13.413Z,93.89
2022-12-22T03:19:02.621Z,94.11
2022-12-22T03:21:51.650Z,93.46
2022-12-22T03:24:41.156Z,93.89
2022-12-22T03:27:13.229Z,93.49
2022-12-22T03:29:45.690Z,93.27
2022-12-22T03:32:17.435Z,94.07
2022-12-22T03:34:49.169Z,93.75
2022-12-22T03:37:20.853Z,93.64
2022-12-22T03:39:52.573Z,93.87
2022-12-22T03:42:41.392Z,93.36
2022-12-22T03:45:30.815Z,92.97
2022-12-22T03:48:02.590Z,93.22
2022-12-22T03:50:34.371Z,93.22
2022-12-22T03:53:06.740Z,92.84
2022-12-22T03:55:38.609Z,92.78
2022-12-22T03:58:10.233Z,92.46
2022-12-22T04:00:42.304Z,92.43
2022-12-22T04:03:15.274Z,92.42
2022-12-22T04:05:47.814Z,92.29
2022-12-22T04:08:19.541Z,92.57
2022-12-22T04:11:08.630Z,92.79
2022-12-22T04:13:40.458Z,92.40
2022-12-22T04:16:12.212Z,92.85
2022-12-22T04:18:43.835Z,92.92
2022-12-22T04:21:15.722Z,93.24
2022-12-22T04:23:51.132Z,93.86
2022-12-22T04:26:24.731Z,93.88
2022-12-22T04:28:56.748Z,93.28
2022-12-22T04:31:28.924Z,93.31
2022-12-22T04:34:00.817Z,92.87
2022-12-22T04:36:32.597Z,92.76
2022-12-22T04:39:04.619Z,92.70
2022-12-22T04:41:36.651Z,92.63
2022-12-22T04:44:08.843Z,92.70
2022-12-22T04:46:40.595Z,92.87
2022-12-22T04:49:12.203Z,92.74
2022-12-22T04:51:43.991Z,92.81
2022-12-22T04:54:15.930Z,92.94
2022-12-22T04:56:47.803Z,92.90
2022-12-22T04:59:19.700Z,92.97
2022-12-22T05:01:51.943Z,93.11
2022-12-22T05:04:24.175Z,92.96
2022-12-22T05:06:55.976Z,93.04
2022-12-22T05:09:27.662Z,93.11
2022-12-22T05:11:59.247Z,93.33
2022-12-22T05:14:30.883Z,93.25
2022-12-22T05:17:02.678Z,93.09
2022-12-22T05:19:34.624Z,93.14
2022-12-22T05:22:06.320Z,93.03
2022-12-22T05:24:38.399Z,93.12
2022-12-22T05:27:11.422Z,93.34
2022-12-22T05:29:43.207Z,93.14
2022-12-22T05:32:15.284Z,93.13
2022-12-22T05:34:46.979Z,93.27
2022-12-22T05:37:18.762Z,93.33
2022-12-22T05:39:50.633Z,93.26
2022-12-22T05:45:23.283Z,93.25
2022-12-22T05:47:55.244Z,93.25
2022-12-22T05:50:27.859Z,93.72
2022-12-22T05:53:03.728Z,93.95
2022-12-22T05:55:35.851Z,94.09
2022-12-22T05:58:07.659Z,93.97
2022-12-22T06:00:39.426Z,93.85
2022-12-22T06:03:11.976Z,94.24
2022-12-22T06:05:44.021Z,94.32
2022-12-22T06:08:15.738Z,94.76
2022-12-22T06:10:47.444Z,94.58
2022-12-22T06:13:19.540Z,94.44
2022-12-22T06:15:51.836Z,94.46
2022-12-22T06:18:23.679Z,94.65
2022-12-22T06:20:55.621Z,94.79
2022-12-22T06:23:27.726Z,94.91
2022-12-22T06:26:02.796Z,94.91
2022-12-22T06:28:34.754Z,95.10
2022-12-22T06:31:06.704Z,95.11
2022-12-22T06:33:39.114Z,95.14
2022-12-22T06:36:12.533Z,94.89
2022-12-22T06:38:44.704Z,95.10
2022-12-22T06:41:36.503Z,94.91
2022-12-22T06:44:08.635Z,94.96
2022-12-22T06:46:40.650Z,94.91
2022-12-22T06:49:13.073Z,94.88
2022-12-22T06:51:44.826Z,94.84
2022-12-22T06:54:20.853Z,94.82
2022-12-22T06:56:57.517Z,94.90
2022-12-22T06:59:29.773Z,94.84
2022-12-22T07:02:01.871Z,94.96
2022-12-22T07:04:33.981Z,94.81
2022-12-22T07:07:05.789Z,94.70
2022-12-22T07:09:38.460Z,94.53
2022-12-22T07:12:10.399Z,94.19
2022-12-22T07:14:42.137Z,94.28
2022-12-22T07:17:14.067Z,94.26
2022-12-22T07:19:46.137Z,94.09
2022-12-22T07:22:17.940Z,94.03
2022-12-22T07:24:50.182Z,94.20
2022-12-22T07:27:22.018Z,93.97
2022-12-22T07:29:54.001Z,93.84
2022-12-22T07:32:25.694Z,93.98
2022-12-22T07:35:04.759Z,94.09
2022-12-22T07:37:37.253Z,94.51
2022-12-22T07:40:11.436Z,94.18
2022-12-22T07:42:46.004Z,94.20
2022-12-22T07:45:19.571Z,94.31
2022-12-22T07:47:51.829Z,94.24
2022-12-22T07:50:27.985Z,94.18
2022-12-22T07:53:02.099Z,94.30
2022-12-22T07:55:36.968Z,94.09
2022-12-22T07:58:09.166Z,93.81
2022-12-22T08:00:41.180Z,93.88
2022-12-22T08:03:13.178Z,93.73
2022-12-22T08:05:46.288Z,93.53
2022-12-22T08:08:18.047Z,93.55
2022-12-22T08:10:49.780Z,93.52
2022-12-22T08:13:21.659Z,93.29
2022-12-22T08:15:53.589Z,93.04
2022-12-22T08:18:25.609Z,93.15
2022-12-22T08:20:57.509Z,93.18
2022-12-22T08:23:29.401Z,93.03
2022-12-22T08:26:07.247Z,93.26
2022-12-22T08:28:45.142Z,93.14
2022-12-22T08:31:17.199Z,93.24
2022-12-22T08:33:49.549Z,93.08
2022-12-22T08:36:21.784Z,93.04
2022-12-22T08:38:54.155Z,93.05
2022-12-22T08:41:40.000Z,92.81
2022-12-22T08:44:12.474Z,92.94
2022-12-22T08:46:44.623Z,93.11
2022-12-22T08:49:16.899Z,93.01
2022-12-22T08:51:48.979Z,93.03
2022-12-22T08:54:22.001Z,93.05
2022-12-22T08:56:54.111Z,93.23
2022-12-22T08:59:25.948Z,93.04
2022-12-22T09:01:58.313Z,93.37
2022-12-22T09:04:30.467Z,93.19
2022-12-22T09:07:03.682Z,93.35
2022-12-22T09:09:36.133Z,93.29
2022-12-22T09:12:09.343Z,93.36
2022-12-22T09:14:41.291Z,93.20
2022-12-22T09:17:13.580Z,92.96
2022-12-22T09:19:45.580Z,92.82
2022-12-22T09:22:21.763Z,92.93
2022-12-22T09:24:57.358Z,92.81
2022-12-22T09:27:31.334Z,92.45
2022-12-22T09:30:03.528Z,92.36
2022-12-22T09:32:35.685Z,92.60
2022-12-22T09:35:08.957Z,92.79
2022-12-22T09:37:41.047Z,93.33
2022-12-22T09:40:14.437Z,94.22
2022-12-22T09:42:46.341Z,94.61
2022-12-22T09:45:20.782Z,95.13
2022-12-22T09:47:54.488Z,95.92
2022-12-22T09:50:28.000Z,97.12
2022-12-22T09:53:02.411Z,97.34
2022-12-22T09:55:41.564Z,97.64
2022-12-22T09:58:26.188Z,97.31
2022-12-22T10:01:12.033Z,97.35
2022-12-22T10:03:51.783Z,97.07
2022-12-22T10:06:30.310Z,96.58
2022-12-22T10:09:43.936Z,96.51
2022-12-22T10:12:07.671Z,96.27
2022-12-22T10:14:42.687Z,96.89
2022-12-22T10:17:28.131Z,96.40
2022-12-22T10:20:25.363Z,96.19
2022-12-22T10:22:59.626Z,95.97
2022-12-22T10:26:08.858Z,95.83
2022-12-22T10:28:29.006Z,95.61
2022-12-22T10:31:20.787Z,95.51
2022-12-22T10:33:54.918Z,95.49
2022-12-22T10:36:29.998Z,95.19
2022-12-22T10:39:05.272Z,95.00
2022-12-22T10:41:39.314Z,95.25
2022-12-22T10:44:21.454Z,95.55
2022-12-22T10:46:54.994Z,95.44
2022-12-22T10:49:31.842Z,95.59
2022-12-22T10:52:15.747Z,95.42
2022-12-22T10:54:48.289Z,95.46
2022-12-22T10:57:31.694Z,95.81
2022-12-22T11:00:23.273Z,95.96
2022-12-22T11:02:57.845Z,95.86
2022-12-22T11:05:30.817Z,96.03
2022-12-22T11:08:13.757Z,96.14
2022-12-22T11:10:46.795Z,96.13
2022-12-22T11:13:39.050Z,96.42
2022-12-22T11:16:19.655Z,96.49
2022-12-22T11:19:21.571Z,97.11
2022-12-22T11:22:01.516Z,97.22
2022-12-22T11:24:40.425Z,97.40
2022-12-22T11:27:28.912Z,97.62
2022-12-22T11:30:14.228Z,97.56
2022-12-22T11:33:03.592Z,97.64
2022-12-22T11:35:52.303Z,98.69
2022-12-22T11:38:38.512Z,99.80
2022-12-22T11:41:23.067Z,100.00
2022-12-22T11:44:09.205Z,100.00
2022-12-22T11:46:49.702Z,100.00
2022-12-22T11:49:44.167Z,100.00
2022-12-22T11:52:31.027Z,100.00
2022-12-22T11:55:12.698Z,100.00
2022-12-22T11:57:56.822Z,100.00
2022-12-22T12:01:11.853Z,100.00
2022-12-22T12:03:57.989Z,100.00
2022-12-22T12:06:42.190Z,100.00
2022-12-22T12:09:33.595Z,100.00
2022-12-22T12:12:13.768Z,100.00
2022-12-22T12:14:56.831Z,100.00
2022-12-22T12:17:30.054Z,100.00
2022-12-22T12:20:19.137Z,100.00
2022-12-22T12:23:08.580Z,100.00
2022-12-22T12:25:45.299Z,100.00
2022-12-22T12:28:25.224Z,100.00
2022-12-22T12:31:00.385Z,100.00
2022-12-22T12:33:43.315Z,100.00
2022-12-22T12:36:24.506Z,100.00
2022-12-22T12:39:07.907Z,100.00
2022-12-22T12:41:48.256Z,100.00
2022-12-22T12:44:24.043Z,100.00
2022-12-22T12:47:08.002Z,100.00
2022-12-22T12:50:22.263Z,100.00
2022-12-22T12:53:17.032Z,100.00
2022-12-22T12:55:57.345Z,100.00
2022-12-22T12:58:51.619Z,100.00
2022-12-22T13:02:01.868Z,100.00
2022-12-22T13:05:13.594Z,100.00
2022-12-22T13:08:29.437Z,100.00
2022-12-22T13:15:01.372Z,100.00
2022-12-22T13:17:49.091Z,100.00
2022-12-22T13:20:25.875Z,100.00
2022-12-22T13:23:00.101Z,100.00
2022-12-22T13:25:46.410Z,100.00
2022-12-22T13:28:21.147Z,100.00
2022-12-22T13:30:59.222Z,100.00
2022-12-22T13:33:37.222Z,100.00
2022-12-22T13:36:21.424Z,100.00
2022-12-22T13:39:02.701Z,100.00
2022-12-22T13:41:36.508Z,100.00
2022-12-22T13:44:13.705Z,100.00
2022-12-22T13:46:47.292Z,100.00
2022-12-22T13:49:51.535Z,100.00
2022-12-22T13:52:17.467Z,100.00
2022-12-22T13:54:49.492Z,100.00
2022-12-22T13:57:26.140Z,100.00
2022-12-22T13:59:58.008Z,100.00
2022-12-22T14:02:35.324Z,100.00
2022-12-22T14:05:10.762Z,100.00
2022-12-22T14:07:57.869Z,100.00
2022-12-22T14:10:38.622Z,100.00
2022-12-22T14:13:19.214Z,100.00
2022-12-22T14:16:02.751Z,100.00
2022-12-22T14:18:36.905Z,100.00
2022-12-22T14:21:10.710Z,100.00
2022-12-22T14:23:44.501Z,100.00
2022-12-22T14:26:21.539Z,100.00
2022-12-22T14:28:57.062Z,100.00
2022-12-22T14:31:28.866Z,100.00
2022-12-22T14:34:05.346Z,100.00
2022-12-22T14:36:45.841Z,100.00
2022-12-22T14:39:26.083Z,100.00
2022-12-22T14:42:00.970Z,100.00
2022-12-22T14:44:37.724Z,100.00
2022-12-22T14:47:18.313Z,100.00
2022-12-22T14:49:53.948Z,100.00
2022-12-22T14:52:36.033Z,100.00
2022-12-22T14:55:23.941Z,100.00
2022-12-22T14:57:59.676Z,100.00
2022-12-22T15:00:37.881Z,100.00
2022-12-22T15:03:31.657Z,100.00
2022-12-22T15:06:34.248Z,100.00
2022-12-22T15:10:12.500Z,100.00
2022-12-22T15:12:19.936Z,100.00
2022-12-22T15:14:52.556Z,100.00
2022-12-22T15:17:26.520Z,100.00
2022-12-22T15:20:00.325Z,100.00
2022-12-22T15:22:32.549Z,100.00
2022-12-22T15:25:07.808Z,100.00
2022-12-22T15:27:39.749Z,100.00
2022-12-22T15:30:14.703Z,100.00
2022-12-22T15:32:46.915Z,100.00
2022-12-22T15:35:22.586Z,100.00
2022-12-22T15:37:54.376Z,100.00
2022-12-22T15:40:27.883Z,100.00
2022-12-22T15:42:59.698Z,100.00
2022-12-22T15:45:32.325Z,100.00
2022-12-22T15:48:06.056Z,100.00
2022-12-22T15:50:42.707Z,100.00
2022-12-22T15:53:19.820Z,100.00
2022-12-22T15:55:54.801Z,100.00
2022-12-22T15:58:30.481Z,100.00
2022-12-22T16:01:03.041Z,100.00
2022-12-22T16:03:36.027Z,100.00
2022-12-22T16:06:14.208Z,100.00
2022-12-22T16:08:50.342Z,100.00
2022-12-22T16:11:22.659Z,100.00
2022-12-22T16:13:55.131Z,100.00
2022-12-22T16:16:27.251Z,100.00
2022-12-22T16:18:59.186Z,100.00
2022-12-22T16:21:33.561Z,100.00
2022-12-22T16:24:07.366Z,100.00
2022-12-22T16:26:39.815Z,100.00
2022-12-22T16:29:18.216Z,100.00
2022-12-22T16:31:50.168Z,100.00
2022-12-22T16:34:22.152Z,100.00
2022-12-22T16:36:54.060Z,100.00
2022-12-22T16:39:25.915Z,100.00
2022-12-22T16:42:00.499Z,100.00
2022-12-22T16:47:25.455Z,100.00
2022-12-22T16:49:57.908Z,100.00
2022-12-22T16:52:38.679Z,100.00
2022-12-22T16:55:17.385Z,100.00
2022-12-22T16:57:49.617Z,100.00
2022-12-22T17:00:24.508Z,100.00
2022-12-22T17:02:58.537Z,100.00
2022-12-22T17:05:44.519Z,100.00
2022-12-22T17:08:23.397Z,100.00
2022-12-22T17:10:57.651Z,100.00
2022-12-22T17:13:29.641Z,100.00
2022-12-22T17:16:01.783Z,100.00
2022-12-22T17:18:35.962Z,100.00
2022-12-22T17:21:07.986Z,100.00
2022-12-22T17:23:44.258Z,100.00
2022-12-22T17:26:18.896Z,100.00
2022-12-22T17:28:52.272Z,100.00
2022-12-22T17:31:26.750Z,100.00
2022-12-22T17:33:59.170Z,100.00
2022-12-22T17:36:39.642Z,100.00
2022-12-22T17:39:16.515Z,100.00
2022-12-22T17:41:54.328Z,100.00
2022-12-22T17:44:28.728Z,100.00
2022-12-22T17:47:00.995Z,100.00
2022-12-22T17:49:33.116Z,100.00
2022-12-22T17:52:05.535Z,100.00
2022-12-22T17:54:37.438Z,100.00
2022-12-22T17:57:16.857Z,100.00
2022-12-22T17:59:48.755Z,100.00
2022-12-22T18:02:24.178Z,100.00
2022-12-22T18:04:56.722Z,100.00
2022-12-22T18:07:29.180Z,100.00
2022-12-22T18:10:04.672Z,100.00
2022-12-22T18:12:36.744Z,100.00
2022-12-22T18:15:17.692Z,100.00
2022-12-22T18:17:49.410Z,100.00
2022-12-22T18:20:23.478Z,100.00
2022-12-22T18:23:02.055Z,100.00
2022-12-22T18:25:35.589Z,100.00
2022-12-22T18:28:13.705Z,100.00
2022-12-22T18:30:45.752Z,100.00
2022-12-22T18:33:17.556Z,100.00
2022-12-22T18:35:50.175Z,100.00
2022-12-22T18:38:28.206Z,100.00
2022-12-22T18:41:00.478Z,100.00
2022-12-22T18:43:32.362Z,100.00
2022-12-22T18:46:04.107Z,100.00
2022-12-22T18:48:35.822Z,100.00
2022-12-22T18:51:17.539Z,100.00
2022-12-22T18:53:50.377Z,100.00
2022-12-22T18:56:20.585Z,100.00
2022-12-22T18:58:52.302Z,100.00
2022-12-22T19:01:27.164Z,100.00
2022-12-22T19:04:00.030Z,100.00
2022-12-22T19:06:32.217Z,100.00
2022-12-22T19:09:04.021Z,100.00
2022-12-22T19:11:36.910Z,100.00
2022-12-22T19:14:15.739Z,100.00
2022-12-22T19:16:48.643Z,100.00
2022-12-22T19:19:22.425Z,100.00
2022-12-22T19:21:55.214Z,100.00
2022-12-22T19:24:27.435Z,100.00
2022-12-22T19:26:59.458Z,100.00
2022-12-22T19:29:32.275Z,100.00
2022-12-22T19:32:03.215Z,100.00
2022-12-22T19:34:36.215Z,100.00
2022-12-22T19:37:09.442Z,100.00
2022-12-22T19:39:41.234Z,100.00
2022-12-22T19:42:16.318Z,100.00
2022-12-22T19:44:48.764Z,100.00
2022-12-22T19:47:24.369Z,100.00
2022-12-22T19:49:57.417Z,100.00
2022-12-22T19:52:30.276Z,100.00
2022-12-22T19:55:02.636Z,100.00
2022-12-22T19:57:40.908Z,100.00
2022-12-22T20:00:22.619Z,100.00
2022-12-22T20:02:58.914Z,100.00
2022-12-22T20:05:35.131Z,100.00
2022-12-22T20:08:08.016Z,100.00
2022-12-22T20:10:43.080Z,100.00
2022-12-22T20:13:19.133Z,100.00
2022-12-22T20:15:51.963Z,100.00
2022-12-22T20:18:27.538Z,100.00
2022-12-22T20:21:04.074Z,100.00
2022-12-22T20:23:40.400Z,100.00
2022-12-22T20:26:19.519Z,100.00
2022-12-22T20:28:53.889Z,100.00
2022-12-22T20:31:27.172Z,100.00
2022-12-22T20:34:01.239Z,100.00
2022-12-22T20:36:35.207Z,100.00
2022-12-22T20:39:16.561Z,100.00
2022-12-22T20:41:52.879Z,100.00
2022-12-22T20:44:28.212Z,100.00
2022-12-22T20:47:01.029Z,100.00
2022-12-22T20:49:32.801Z,100.00
2022-12-22T20:52:05.005Z,100.00
2022-12-22T20:54:38.031Z,100.00
2022-12-22T20:57:14.059Z,100.00
2022-12-22T20:59:55.591Z,100.00
2022-12-22T21:02:29.067Z,100.00
2022-12-22T21:05:02.294Z,100.00
2022-12-22T21:07:34.363Z,100.00
2022-12-22T21:10:07.433Z,100.00
2022-12-22T21:12:39.111Z,100.00
2022-12-22T21:15:16.405Z,100.00
2022-12-22T21:17:52.774Z,100.00
2022-12-22T21:20:30.812Z,100.00
2022-12-22T21:23:02.645Z,100.00
2022-12-22T21:25:34.724Z,100.00
2022-12-22T21:28:10.597Z,100.00
2022-12-22T21:30:42.444Z,100.00
2022-12-22T21:33:15.620Z,100.00
2022-12-22T21:35:47.594Z,100.00
2022-12-22T21:38:21.437Z,100.00
2022-12-22T21:40:53.589Z,100.00
2022-12-22T21:43:25.353Z,100.00
2022-12-22T21:45:57.554Z,100.00
2022-12-22T21:48:29.904Z,100.00
2022-12-22T21:51:01.710Z,100.00
2022-12-22T21:53:33.470Z,100.00
2022-12-22T21:56:10.751Z,100.00
2022-12-22T21:58:42.793Z,100.00
2022-12-22T22:01:16.505Z,100.00
2022-12-22T22:03:49.333Z,100.00
2022-12-22T22:06:21.202Z,100.00
2022-12-22T22:08:53.318Z,100.00
2022-12-22T22:11:27.383Z,100.00
2022-12-22T22:13:59.444Z,100.00
2022-12-22T22:16:31.286Z,100.00
2022-12-22T22:19:03.646Z,100.00
2022-12-22T22:21:36.149Z,100.00
2022-12-22T22:24:09.557Z,100.00
2022-12-22T22:26:45.964Z,100.00
2022-12-22T22:29:17.981Z,100.00
2022-12-22T22:31:50.045Z,100.00
2022-12-22T22:34:21.860Z,100.00
2022-12-22T22:36:54.565Z,100.00
2022-12-22T22:39:26.624Z,100.00
2022-12-22T22:41:58.456Z,100.00
2022-12-22T22:44:30.101Z,100.00
2022-12-22T22:47:01.867Z,100.00
2022-12-22T22:49:33.512Z,100.00
2022-12-22T22:52:05.683Z,100.00
2022-12-22T22:54:37.806Z,100.00
2022-12-22T22:57:09.913Z,100.00
2022-12-22T22:59:41.832Z,100.00
2022-12-22T23:02:16.142Z,100.00
2022-12-22T23:04:48.660Z,100.00
2022-12-22T23:07:20.460Z,100.00
2022-12-22T23:09:52.659Z,100.00
2022-12-22T23:12:24.497Z,100.00
2022-12-22T23:14:56.266Z,100.00
2022-12-22T23:17:28.007Z,100.00
2022-12-22T23:19:59.844Z,100.00
2022-12-22T23:22:31.587Z,100.00
2022-12-22T23:25:03.328Z,100.00
2022-12-22T23:27:35.258Z,100.00
2022-12-22T23:30:09.229Z,100.00
2022-12-22T23:32:41.008Z,100.00
2022-12-22T23:35:13.119Z,100.00
2022-12-22T23:37:45.014Z,100.00
2022-12-22T23:40:50.545Z,100.00
2022-12-22T23:43:12.092Z,100.00
2022-12-22T23:45:44.156Z,100.00
2022-12-22T23:48:15.866Z,100.00
2022-12-22T23:50:49.726Z,100.00
2022-12-22T23:53:21.733Z,100.00
2022-12-22T23:55:53.631Z,100.00
2022-12-22T23:58:26.123Z,100.00
